Terminal Aerodrome Forecast
Issued by NWS Charleston, WV

Current Version | Previous Version | Text Only | Print | Product List | Glossary Off
Versions: 1 2 3 4 5 6 7 8 9 10 11 12 13 14 15 16 17 18 19 20 21 22 23 24

133
FTUS41 KRLX 271143
TAFPKB
TAF
KPKB 271143Z 2712/2812 34006KT P6SM OVC015
     FM271400 03004KT P6SM OVC020
     FM272200 VRB03KT 6SM -SHRA BKN035
     FM280200 VRB03KT P6SM BKN080
     FM280700 VRB03KT 5SM -SHRA OVC040=

USA.gov is the U.S. government's official web portal to all federal, state and local government web resources and services.